sensor_id;sensor_type;location;lat;lon;timestamp;P1;durP1;ratioP1;P2;durP2;ratioP2
40314;SDS011;26021;45.640;11.302;2023-02-28T00:01:19;12.65;;;8.55;;
40314;SDS011;26021;45.640;11.302;2023-02-28T00:03:45;19.98;;;10.70;;
40314;SDS011;26021;45.640;11.302;2023-02-28T00:06:21;13.65;;;9.02;;
40314;SDS011;26021;45.640;11.302;2023-02-28T00:09:06;15.15;;;9.85;;
40314;SDS011;26021;45.640;11.302;2023-02-28T00:11:32;20.85;;;11.32;;
40314;SDS011;26021;45.640;11.302;2023-02-28T00:13:58;10.55;;;7.57;;
40314;SDS011;26021;45.640;11.302;2023-02-28T00:16:23;11.95;;;8.00;;
40314;SDS011;26021;45.640;11.302;2023-02-28T00:18:49;10.98;;;8.05;;
40314;SDS011;26021;45.640;11.302;2023-02-28T00:21:16;11.65;;;8.25;;
40314;SDS011;26021;45.640;11.302;2023-02-28T00:23:42;11.32;;;7.63;;
40314;SDS011;26021;45.640;11.302;2023-02-28T00:26:07;12.38;;;8.20;;
40314;SDS011;26021;45.640;11.302;2023-02-28T00:28:33;10.73;;;8.20;;
40314;SDS011;26021;45.640;11.302;2023-02-28T00:30:59;9.68;;;7.82;;
40314;SDS011;26021;45.640;11.302;2023-02-28T00:33:25;11.00;;;7.90;;
40314;SDS011;26021;45.640;11.302;2023-02-28T00:35:50;11.77;;;7.90;;
40314;SDS011;26021;45.640;11.302;2023-02-28T00:38:16;10.68;;;7.30;;
40314;SDS011;26021;45.640;11.302;2023-02-28T00:40:41;10.88;;;7.60;;
40314;SDS011;26021;45.640;11.302;2023-02-28T00:43:07;10.30;;;7.22;;
40314;SDS011;26021;45.640;11.302;2023-02-28T00:45:33;9.93;;;7.53;;
40314;SDS011;26021;45.640;11.302;2023-02-28T00:47:58;10.25;;;7.15;;
40314;SDS011;26021;45.640;11.302;2023-02-28T00:50:24;7.90;;;6.50;;
40314;SDS011;26021;45.640;11.302;2023-02-28T00:52:49;8.02;;;6.60;;
40314;SDS011;26021;45.640;11.302;2023-02-28T00:55:14;10.05;;;6.65;;
40314;SDS011;26021;45.640;11.302;2023-02-28T00:57:40;9.20;;;6.60;;
40314;SDS011;26021;45.640;11.302;2023-02-28T01:00:06;7.20;;;6.50;;
40314;SDS011;26021;45.640;11.302;2023-02-28T01:02:33;11.98;;;7.55;;
40314;SDS011;26021;45.640;11.302;2023-02-28T01:04:58;8.00;;;6.80;;
40314;SDS011;26021;45.640;11.302;2023-02-28T01:07:23;9.82;;;7.57;;
40314;SDS011;26021;45.640;11.302;2023-02-28T01:09:49;9.23;;;6.68;;
40314;SDS011;26021;45.640;11.302;2023-02-28T01:12:14;9.15;;;6.13;;
40314;SDS011;26021;45.640;11.302;2023-02-28T01:14:40;11.30;;;7.88;;
40314;SDS011;26021;45.640;11.302;2023-02-28T01:17:05;8.32;;;6.75;;
40314;SDS011;26021;45.640;11.302;2023-02-28T01:19:32;10.05;;;6.68;;
40314;SDS011;26021;45.640;11.302;2023-02-28T01:22:01;9.65;;;7.10;;
40314;SDS011;26021;45.640;11.302;2023-02-28T01:24:38;8.50;;;6.90;;
40314;SDS011;26021;45.640;11.302;2023-02-28T01:27:03;10.40;;;7.18;;
40314;SDS011;26021;45.640;11.302;2023-02-28T01:29:29;10.90;;;6.97;;
40314;SDS011;26021;45.640;11.302;2023-02-28T01:31:54;12.60;;;7.75;;
40314;SDS011;26021;45.640;11.302;2023-02-28T01:34:19;9.77;;;7.72;;
40314;SDS011;26021;45.640;11.302;2023-02-28T01:36:45;11.15;;;6.82;;
40314;SDS011;26021;45.640;11.302;2023-02-28T01:39:10;10.00;;;7.20;;
40314;SDS011;26021;45.640;11.302;2023-02-28T01:41:37;9.63;;;6.75;;
40314;SDS011;26021;45.640;11.302;2023-02-28T01:44:07;9.85;;;7.15;;
40314;SDS011;26021;45.640;11.302;2023-02-28T01:46:52;9.48;;;7.40;;
40314;SDS011;26021;45.640;11.302;2023-02-28T01:49:18;7.53;;;6.72;;
40314;SDS011;26021;45.640;11.302;2023-02-28T01:51:54;9.88;;;7.63;;
40314;SDS011;26021;45.640;11.302;2023-02-28T01:54:22;9.60;;;7.20;;
40314;SDS011;26021;45.640;11.302;2023-02-28T01:57:26;7.68;;;6.28;;
40314;SDS011;26021;45.640;11.302;2023-02-28T02:00:00;7.93;;;6.93;;
40314;SDS011;26021;45.640;11.302;2023-02-28T02:02:29;9.98;;;7.55;;
40314;SDS011;26021;45.640;11.302;2023-02-28T02:07:38;8.35;;;6.25;;
40314;SDS011;26021;45.640;11.302;2023-02-28T02:10:17;11.00;;;6.95;;
40314;SDS011;26021;45.640;11.302;2023-02-28T02:15:34;8.68;;;6.90;;
40314;SDS011;26021;45.640;11.302;2023-02-28T02:36:46;7.63;;;6.35;;
40314;SDS011;26021;45.640;11.302;2023-02-28T02:42:05;9.98;;;5.93;;
40314;SDS011;26021;45.640;11.302;2023-02-28T02:44:40;8.45;;;6.40;;
40314;SDS011;26021;45.640;11.302;2023-02-28T02:47:12;7.47;;;6.22;;
40314;SDS011;26021;45.640;11.302;2023-02-28T02:49:42;7.28;;;5.80;;
40314;SDS011;26021;45.640;11.302;2023-02-28T02:52:14;7.53;;;6.72;;
40314;SDS011;26021;45.640;11.302;2023-02-28T02:54:46;7.60;;;6.38;;
40314;SDS011;26021;45.640;11.302;2023-02-28T02:57:17;8.25;;;6.78;;
40314;SDS011;26021;45.640;11.302;2023-02-28T02:59:48;7.22;;;5.85;;
40314;SDS011;26021;45.640;11.302;2023-02-28T03:02:16;8.30;;;6.53;;
40314;SDS011;26021;45.640;11.302;2023-02-28T03:04:48;8.50;;;6.35;;
40314;SDS011;26021;45.640;11.302;2023-02-28T03:07:17;7.10;;;6.28;;
40314;SDS011;26021;45.640;11.302;2023-02-28T03:09:50;8.57;;;6.80;;
40314;SDS011;26021;45.640;11.302;2023-02-28T03:12:19;7.07;;;6.38;;
40314;SDS011;26021;45.640;11.302;2023-02-28T03:20:15;7.73;;;6.40;;
40314;SDS011;26021;45.640;11.302;2023-02-28T03:26:16;7.40;;;6.10;;
40314;SDS011;26021;45.640;11.302;2023-02-28T03:28:54;8.05;;;6.10;;
40314;SDS011;26021;45.640;11.302;2023-02-28T03:31:50;8.60;;;6.68;;
40314;SDS011;26021;45.640;11.302;2023-02-28T03:34:29;8.63;;;6.65;;
40314;SDS011;26021;45.640;11.302;2023-02-28T03:36:59;8.95;;;6.40;;
40314;SDS011;26021;45.640;11.302;2023-02-28T03:39:39;7.78;;;6.70;;
40314;SDS011;26021;45.640;11.302;2023-02-28T03:42:15;6.45;;;5.65;;
40314;SDS011;26021;45.640;11.302;2023-02-28T03:44:54;8.73;;;6.40;;
40314;SDS011;26021;45.640;11.302;2023-02-28T03:50:07;7.50;;;5.93;;
40314;SDS011;26021;45.640;11.302;2023-02-28T03:52:38;9.80;;;7.03;;
40314;SDS011;26021;45.640;11.302;2023-02-28T03:55:10;5.95;;;5.35;;
40314;SDS011;26021;45.640;11.302;2023-02-28T04:00:31;6.70;;;5.65;;
40314;SDS011;26021;45.640;11.302;2023-02-28T04:03:04;7.30;;;6.35;;
40314;SDS011;26021;45.640;11.302;2023-02-28T04:05:30;7.57;;;6.20;;
40314;SDS011;26021;45.640;11.302;2023-02-28T04:08:03;9.38;;;6.32;;
40314;SDS011;26021;45.640;11.302;2023-02-28T04:10:30;7.80;;;5.60;;
40314;SDS011;26021;45.640;11.302;2023-02-28T04:12:56;8.80;;;6.60;;
40314;SDS011;26021;45.640;11.302;2023-02-28T04:15:21;9.85;;;6.47;;
40314;SDS011;26021;45.640;11.302;2023-02-28T04:17:48;8.68;;;6.97;;
40314;SDS011;26021;45.640;11.302;2023-02-28T04:20:13;8.40;;;6.30;;
40314;SDS011;26021;45.640;11.302;2023-02-28T04:22:38;7.88;;;6.28;;
40314;SDS011;26021;45.640;11.302;2023-02-28T04:25:04;9.40;;;6.20;;
40314;SDS011;26021;45.640;11.302;2023-02-28T04:27:30;7.53;;;6.25;;
40314;SDS011;26021;45.640;11.302;2023-02-28T04:29:56;8.38;;;6.25;;
40314;SDS011;26021;45.640;11.302;2023-02-28T04:32:21;7.53;;;6.45;;
40314;SDS011;26021;45.640;11.302;2023-02-28T04:34:46;8.10;;;6.40;;
40314;SDS011;26021;45.640;11.302;2023-02-28T04:37:12;8.38;;;6.90;;
40314;SDS011;26021;45.640;11.302;2023-02-28T04:39:37;8.35;;;6.45;;
40314;SDS011;26021;45.640;11.302;2023-02-28T04:42:03;7.75;;;6.50;;
40314;SDS011;26021;45.640;11.302;2023-02-28T04:44:29;8.63;;;6.90;;
40314;SDS011;26021;45.640;11.302;2023-02-28T04:46:54;7.95;;;6.20;;
40314;SDS011;26021;45.640;11.302;2023-02-28T04:49:20;7.47;;;6.20;;
40314;SDS011;26021;45.640;11.302;2023-02-28T04:51:45;7.32;;;6.35;;
40314;SDS011;26021;45.640;11.302;2023-02-28T04:54:10;8.10;;;6.88;;
40314;SDS011;26021;45.640;11.302;2023-02-28T04:56:36;7.40;;;6.18;;
40314;SDS011;26021;45.640;11.302;2023-02-28T04:59:02;9.77;;;6.95;;
40314;SDS011;26021;45.640;11.302;2023-02-28T05:01:31;9.32;;;6.88;;
40314;SDS011;26021;45.640;11.302;2023-02-28T05:03:59;9.20;;;6.90;;
40314;SDS011;26021;45.640;11.302;2023-02-28T05:06:27;9.93;;;7.70;;
40314;SDS011;26021;45.640;11.302;2023-02-28T05:08:54;9.30;;;6.72;;
40314;SDS011;26021;45.640;11.302;2023-02-28T05:11:23;10.00;;;7.43;;
40314;SDS011;26021;45.640;11.302;2023-02-28T05:14:00;12.20;;;8.00;;
40314;SDS011;26021;45.640;11.302;2023-02-28T05:16:29;11.13;;;7.55;;
40314;SDS011;26021;45.640;11.302;2023-02-28T05:18:55;10.57;;;7.82;;
40314;SDS011;26021;45.640;11.302;2023-02-28T05:21:24;9.00;;;7.03;;
40314;SDS011;26021;45.640;11.302;2023-02-28T05:23:52;9.98;;;7.00;;
40314;SDS011;26021;45.640;11.302;2023-02-28T05:26:18;10.07;;;7.63;;
40314;SDS011;26021;45.640;11.302;2023-02-28T05:28:43;10.30;;;7.38;;
40314;SDS011;26021;45.640;11.302;2023-02-28T05:31:12;11.60;;;8.02;;
40314;SDS011;26021;45.640;11.302;2023-02-28T05:33:37;11.80;;;7.20;;
40314;SDS011;26021;45.640;11.302;2023-02-28T05:36:03;9.98;;;8.00;;
40314;SDS011;26021;45.640;11.302;2023-02-28T05:38:29;21.98;;;13.60;;
40314;SDS011;26021;45.640;11.302;2023-02-28T05:40:54;71.47;;;34.47;;
40314;SDS011;26021;45.640;11.302;2023-02-28T05:43:21;20.30;;;11.25;;
40314;SDS011;26021;45.640;11.302;2023-02-28T05:45:46;20.05;;;11.32;;
40314;SDS011;26021;45.640;11.302;2023-02-28T05:48:12;22.23;;;12.77;;
40314;SDS011;26021;45.640;11.302;2023-02-28T05:50:37;15.98;;;9.00;;
40314;SDS011;26021;45.640;11.302;2023-02-28T05:53:03;10.82;;;8.18;;
40314;SDS011;26021;45.640;11.302;2023-02-28T05:55:28;12.15;;;9.68;;
40314;SDS011;26021;45.640;11.302;2023-02-28T05:57:54;11.38;;;8.50;;
40314;SDS011;26021;45.640;11.302;2023-02-28T06:00:20;14.77;;;12.15;;
40314;SDS011;26021;45.640;11.302;2023-02-28T06:02:46;10.52;;;7.93;;
40314;SDS011;26021;45.640;11.302;2023-02-28T06:05:16;10.80;;;7.80;;
40314;SDS011;26021;45.640;11.302;2023-02-28T06:07:42;23.40;;;18.42;;
40314;SDS011;26021;45.640;11.302;2023-02-28T06:10:09;13.25;;;10.10;;
40314;SDS011;26021;45.640;11.302;2023-02-28T06:12:35;13.23;;;8.60;;
40314;SDS011;26021;45.640;11.302;2023-02-28T06:15:01;11.40;;;8.57;;
40314;SDS011;26021;45.640;11.302;2023-02-28T06:17:27;10.98;;;7.97;;
40314;SDS011;26021;45.640;11.302;2023-02-28T06:19:52;14.10;;;8.85;;
40314;SDS011;26021;45.640;11.302;2023-02-28T06:22:18;14.85;;;9.00;;
40314;SDS011;26021;45.640;11.302;2023-02-28T06:24:43;13.20;;;8.82;;
40314;SDS011;26021;45.640;11.302;2023-02-28T06:27:08;15.00;;;9.38;;
40314;SDS011;26021;45.640;11.302;2023-02-28T06:29:34;11.73;;;8.27;;
40314;SDS011;26021;45.640;11.302;2023-02-28T06:32:00;16.58;;;10.23;;
40314;SDS011;26021;45.640;11.302;2023-02-28T06:34:26;15.73;;;10.52;;
40314;SDS011;26021;45.640;11.302;2023-02-28T06:36:52;17.85;;;9.98;;
40314;SDS011;26021;45.640;11.302;2023-02-28T06:39:17;13.13;;;8.38;;
40314;SDS011;26021;45.640;11.302;2023-02-28T06:41:43;9.32;;;7.55;;
40314;SDS011;26021;45.640;11.302;2023-02-28T06:44:14;14.93;;;8.85;;
40314;SDS011;26021;45.640;11.302;2023-02-28T06:46:41;14.13;;;9.07;;
40314;SDS011;26021;45.640;11.302;2023-02-28T06:49:08;12.13;;;8.60;;
40314;SDS011;26021;45.640;11.302;2023-02-28T06:51:35;11.63;;;9.13;;
40314;SDS011;26021;45.640;11.302;2023-02-28T06:54:01;13.65;;;9.55;;
40314;SDS011;26021;45.640;11.302;2023-02-28T06:56:27;18.20;;;10.90;;
40314;SDS011;26021;45.640;11.302;2023-02-28T06:58:52;14.60;;;9.85;;
40314;SDS011;26021;45.640;11.302;2023-02-28T07:01:18;12.50;;;10.40;;
40314;SDS011;26021;45.640;11.302;2023-02-28T07:03:44;17.10;;;12.95;;
40314;SDS011;26021;45.640;11.302;2023-02-28T07:06:10;17.13;;;12.25;;
40314;SDS011;26021;45.640;11.302;2023-02-28T07:08:35;15.65;;;11.45;;
40314;SDS011;26021;45.640;11.302;2023-02-28T07:11:01;16.08;;;11.02;;
40314;SDS011;26021;45.640;11.302;2023-02-28T07:13:27;19.40;;;10.80;;
40314;SDS011;26021;45.640;11.302;2023-02-28T07:15:55;15.52;;;11.75;;
40314;SDS011;26021;45.640;11.302;2023-02-28T07:18:25;14.27;;;10.93;;
40314;SDS011;26021;45.640;11.302;2023-02-28T07:20:51;13.63;;;9.70;;
40314;SDS011;26021;45.640;11.302;2023-02-28T07:23:17;13.75;;;10.93;;
40314;SDS011;26021;45.640;11.302;2023-02-28T07:25:42;17.08;;;11.95;;
40314;SDS011;26021;45.640;11.302;2023-02-28T07:28:08;16.27;;;11.38;;
40314;SDS011;26021;45.640;11.302;2023-02-28T07:30:34;13.52;;;10.38;;
40314;SDS011;26021;45.640;11.302;2023-02-28T07:32:59;13.98;;;10.90;;
40314;SDS011;26021;45.640;11.302;2023-02-28T07:35:24;16.27;;;10.25;;
40314;SDS011;26021;45.640;11.302;2023-02-28T07:37:50;14.73;;;10.00;;
40314;SDS011;26021;45.640;11.302;2023-02-28T07:40:15;12.13;;;9.15;;
40314;SDS011;26021;45.640;11.302;2023-02-28T07:42:43;15.18;;;9.77;;
40314;SDS011;26021;45.640;11.302;2023-02-28T07:45:09;12.23;;;8.73;;
40314;SDS011;26021;45.640;11.302;2023-02-28T07:47:37;11.88;;;9.35;;
40314;SDS011;26021;45.640;11.302;2023-02-28T07:50:04;13.68;;;9.13;;
40314;SDS011;26021;45.640;11.302;2023-02-28T07:52:30;11.65;;;8.00;;
40314;SDS011;26021;45.640;11.302;2023-02-28T07:54:58;10.68;;;8.25;;
40314;SDS011;26021;45.640;11.302;2023-02-28T07:57:23;8.88;;;7.32;;
40314;SDS011;26021;45.640;11.302;2023-02-28T07:59:49;10.48;;;7.60;;
40314;SDS011;26021;45.640;11.302;2023-02-28T08:02:15;8.45;;;7.30;;
40314;SDS011;26021;45.640;11.302;2023-02-28T08:04:43;9.77;;;6.85;;
40314;SDS011;26021;45.640;11.302;2023-02-28T08:07:09;9.40;;;6.72;;
40314;SDS011;26021;45.640;11.302;2023-02-28T08:09:38;10.25;;;6.47;;
40314;SDS011;26021;45.640;11.302;2023-02-28T08:12:05;8.43;;;7.30;;
40314;SDS011;26021;45.640;11.302;2023-02-28T08:14:33;8.95;;;7.15;;
40314;SDS011;26021;45.640;11.302;2023-02-28T08:16:59;8.88;;;7.03;;
40314;SDS011;26021;45.640;11.302;2023-02-28T08:19:24;9.40;;;7.10;;
40314;SDS011;26021;45.640;11.302;2023-02-28T08:21:50;9.50;;;7.68;;
40314;SDS011;26021;45.640;11.302;2023-02-28T08:24:15;9.23;;;7.32;;
40314;SDS011;26021;45.640;11.302;2023-02-28T08:26:41;11.23;;;7.05;;
40314;SDS011;26021;45.640;11.302;2023-02-28T08:29:06;9.27;;;7.63;;
40314;SDS011;26021;45.640;11.302;2023-02-28T08:31:31;9.68;;;8.15;;
40314;SDS011;26021;45.640;11.302;2023-02-28T08:33:57;11.95;;;8.45;;
40314;SDS011;26021;45.640;11.302;2023-02-28T08:36:24;9.38;;;7.43;;
40314;SDS011;26021;45.640;11.302;2023-02-28T08:38:51;7.93;;;6.78;;
40314;SDS011;26021;45.640;11.302;2023-02-28T08:41:16;8.80;;;7.22;;
40314;SDS011;26021;45.640;11.302;2023-02-28T08:43:41;11.68;;;7.78;;
40314;SDS011;26021;45.640;11.302;2023-02-28T08:46:08;9.18;;;8.00;;
40314;SDS011;26021;45.640;11.302;2023-02-28T08:48:36;13.30;;;8.32;;
40314;SDS011;26021;45.640;11.302;2023-02-28T08:51:06;10.13;;;7.60;;
40314;SDS011;26021;45.640;11.302;2023-02-28T08:53:34;10.15;;;7.50;;
40314;SDS011;26021;45.640;11.302;2023-02-28T08:56:04;10.02;;;7.88;;
40314;SDS011;26021;45.640;11.302;2023-02-28T08:58:32;7.60;;;6.80;;
40314;SDS011;26021;45.640;11.302;2023-02-28T09:00:59;8.70;;;7.10;;
40314;SDS011;26021;45.640;11.302;2023-02-28T09:03:24;8.60;;;7.13;;
40314;SDS011;26021;45.640;11.302;2023-02-28T09:05:53;16.75;;;8.13;;
40314;SDS011;26021;45.640;11.302;2023-02-28T09:08:19;9.25;;;7.40;;
40314;SDS011;26021;45.640;11.302;2023-02-28T09:10:45;9.20;;;7.38;;
40314;SDS011;26021;45.640;11.302;2023-02-28T09:13:10;8.57;;;6.55;;
40314;SDS011;26021;45.640;11.302;2023-02-28T09:15:37;9.05;;;7.38;;
40314;SDS011;26021;45.640;11.302;2023-02-28T09:18:02;8.27;;;6.93;;
40314;SDS011;26021;45.640;11.302;2023-02-28T09:20:28;7.78;;;6.32;;
40314;SDS011;26021;45.640;11.302;2023-02-28T09:22:53;10.35;;;6.40;;
40314;SDS011;26021;45.640;11.302;2023-02-28T09:25:19;7.30;;;5.97;;
40314;SDS011;26021;45.640;11.302;2023-02-28T09:27:44;7.03;;;5.85;;
40314;SDS011;26021;45.640;11.302;2023-02-28T09:30:10;8.48;;;5.63;;
40314;SDS011;26021;45.640;11.302;2023-02-28T09:32:36;6.75;;;5.88;;
40314;SDS011;26021;45.640;11.302;2023-02-28T09:35:02;7.53;;;6.22;;
40314;SDS011;26021;45.640;11.302;2023-02-28T09:37:29;6.85;;;6.13;;
40314;SDS011;26021;45.640;11.302;2023-02-28T09:39:55;8.23;;;6.15;;
40314;SDS011;26021;45.640;11.302;2023-02-28T09:42:21;8.35;;;6.45;;
40314;SDS011;26021;45.640;11.302;2023-02-28T09:44:52;11.02;;;7.90;;
40314;SDS011;26021;45.640;11.302;2023-02-28T09:47:21;8.15;;;5.72;;
40314;SDS011;26021;45.640;11.302;2023-02-28T09:49:54;7.25;;;5.93;;
40314;SDS011;26021;45.640;11.302;2023-02-28T09:52:25;8.60;;;6.43;;
40314;SDS011;26021;45.640;11.302;2023-02-28T09:54:55;7.82;;;5.97;;
40314;SDS011;26021;45.640;11.302;2023-02-28T09:57:35;6.68;;;5.93;;
40314;SDS011;26021;45.640;11.302;2023-02-28T10:05:26;8.32;;;6.95;;
40314;SDS011;26021;45.640;11.302;2023-02-28T10:10:43;10.25;;;8.30;;
40314;SDS011;26021;45.640;11.302;2023-02-28T10:13:15;12.50;;;8.27;;
40314;SDS011;26021;45.640;11.302;2023-02-28T10:15:45;11.25;;;8.40;;
40314;SDS011;26021;45.640;11.302;2023-02-28T10:18:15;11.60;;;8.38;;
40314;SDS011;26021;45.640;11.302;2023-02-28T10:20:47;11.20;;;8.35;;
40314;SDS011;26021;45.640;11.302;2023-02-28T10:23:21;8.85;;;7.78;;
40314;SDS011;26021;45.640;11.302;2023-02-28T10:25:55;12.20;;;8.27;;
40314;SDS011;26021;45.640;11.302;2023-02-28T10:28:25;11.95;;;8.90;;
40314;SDS011;26021;45.640;11.302;2023-02-28T10:30:52;12.68;;;8.80;;
40314;SDS011;26021;45.640;11.302;2023-02-28T10:35:53;9.80;;;7.95;;
40314;SDS011;26021;45.640;11.302;2023-02-28T10:38:26;10.70;;;7.95;;
40314;SDS011;26021;45.640;11.302;2023-02-28T10:43:32;10.27;;;8.15;;
40314;SDS011;26021;45.640;11.302;2023-02-28T10:45:59;11.35;;;8.48;;
40314;SDS011;26021;45.640;11.302;2023-02-28T10:48:30;11.15;;;8.68;;
40314;SDS011;26021;45.640;11.302;2023-02-28T10:50:58;11.15;;;8.63;;
40314;SDS011;26021;45.640;11.302;2023-02-28T10:56:23;10.43;;;8.65;;
40314;SDS011;26021;45.640;11.302;2023-02-28T11:01:37;9.70;;;8.55;;
40314;SDS011;26021;45.640;11.302;2023-02-28T11:04:48;12.05;;;8.15;;
40314;SDS011;26021;45.640;11.302;2023-02-28T11:06:58;9.75;;;7.90;;
40314;SDS011;26021;45.640;11.302;2023-02-28T11:09:58;10.63;;;8.27;;
40314;SDS011;26021;45.640;11.302;2023-02-28T11:12:37;11.00;;;8.60;;
40314;SDS011;26021;45.640;11.302;2023-02-28T11:15:14;10.75;;;8.07;;
40314;SDS011;26021;45.640;11.302;2023-02-28T11:17:54;12.03;;;8.50;;
40314;SDS011;26021;45.640;11.302;2023-02-28T11:20:23;10.10;;;8.57;;
40314;SDS011;26021;45.640;11.302;2023-02-28T11:22:51;10.13;;;8.55;;
40314;SDS011;26021;45.640;11.302;2023-02-28T11:25:30;11.73;;;8.27;;
40314;SDS011;26021;45.640;11.302;2023-02-28T11:28:00;10.70;;;8.82;;
40314;SDS011;26021;45.640;11.302;2023-02-28T11:30:36;10.68;;;8.60;;
40314;SDS011;26021;45.640;11.302;2023-02-28T11:35:49;11.70;;;9.55;;
40314;SDS011;26021;45.640;11.302;2023-02-28T11:38:16;16.65;;;11.18;;
40314;SDS011;26021;45.640;11.302;2023-02-28T11:48:55;12.90;;;9.00;;
40314;SDS011;26021;45.640;11.302;2023-02-28T11:51:35;11.52;;;9.18;;
40314;SDS011;26021;45.640;11.302;2023-02-28T11:57:03;11.30;;;9.77;;
40314;SDS011;26021;45.640;11.302;2023-02-28T11:59:51;12.57;;;10.30;;
40314;SDS011;26021;45.640;11.302;2023-02-28T12:05:21;12.95;;;9.70;;
40314;SDS011;26021;45.640;11.302;2023-02-28T12:10:26;12.25;;;8.80;;
40314;SDS011;26021;45.640;11.302;2023-02-28T12:21:11;14.52;;;10.45;;
40314;SDS011;26021;45.640;11.302;2023-02-28T12:29:09;10.52;;;8.00;;
40314;SDS011;26021;45.640;11.302;2023-02-28T12:31:49;12.73;;;9.23;;
40314;SDS011;26021;45.640;11.302;2023-02-28T12:34:22;10.82;;;9.30;;
40314;SDS011;26021;45.640;11.302;2023-02-28T12:36:53;13.30;;;9.95;;
40314;SDS011;26021;45.640;11.302;2023-02-28T12:39:25;12.48;;;9.52;;
40314;SDS011;26021;45.640;11.302;2023-02-28T12:41:55;11.60;;;9.48;;
40314;SDS011;26021;45.640;11.302;2023-02-28T12:44:32;12.77;;;9.63;;
40314;SDS011;26021;45.640;11.302;2023-02-28T12:47:03;11.15;;;9.98;;
40314;SDS011;26021;45.640;11.302;2023-02-28T12:49:36;15.30;;;9.98;;
40314;SDS011;26021;45.640;11.302;2023-02-28T12:52:06;15.13;;;9.95;;
40314;SDS011;26021;45.640;11.302;2023-02-28T12:54:38;12.27;;;9.30;;
40314;SDS011;26021;45.640;11.302;2023-02-28T12:57:28;13.40;;;10.48;;
40314;SDS011;26021;45.640;11.302;2023-02-28T13:00:10;12.50;;;9.52;;
40314;SDS011;26021;45.640;11.302;2023-02-28T13:02:46;10.68;;;9.38;;
40314;SDS011;26021;45.640;11.302;2023-02-28T13:11:31;16.10;;;10.50;;
40314;SDS011;26021;45.640;11.302;2023-02-28T13:19:27;16.25;;;11.13;;
40314;SDS011;26021;45.640;11.302;2023-02-28T13:21:55;14.27;;;10.27;;
40314;SDS011;26021;45.640;11.302;2023-02-28T13:29:34;11.93;;;10.43;;
40314;SDS011;26021;45.640;11.302;2023-02-28T13:34:36;16.35;;;11.40;;
40314;SDS011;26021;45.640;11.302;2023-02-28T13:47:41;15.18;;;10.77;;
40314;SDS011;26021;45.640;11.302;2023-02-28T13:55:42;11.98;;;10.68;;
40314;SDS011;26021;45.640;11.302;2023-02-28T14:06:48;14.32;;;10.75;;
40314;SDS011;26021;45.640;11.302;2023-02-28T14:11:56;14.02;;;10.85;;
40314;SDS011;26021;45.640;11.302;2023-02-28T14:17:01;13.45;;;10.60;;
40314;SDS011;26021;45.640;11.302;2023-02-28T14:19:29;15.40;;;11.32;;
40314;SDS011;26021;45.640;11.302;2023-02-28T14:27:50;14.55;;;11.18;;
40314;SDS011;26021;45.640;11.302;2023-02-28T14:30:43;16.67;;;11.20;;
40314;SDS011;26021;45.640;11.302;2023-02-28T14:36:16;15.43;;;11.47;;
40314;SDS011;26021;45.640;11.302;2023-02-28T14:41:30;14.98;;;11.00;;
40314;SDS011;26021;45.640;11.302;2023-02-28T14:44:02;15.93;;;11.98;;
40314;SDS011;26021;45.640;11.302;2023-02-28T14:46:38;16.25;;;11.20;;
40314;SDS011;26021;45.640;11.302;2023-02-28T14:49:05;20.10;;;13.68;;
40314;SDS011;26021;45.640;11.302;2023-02-28T14:51:32;15.95;;;10.82;;
40314;SDS011;26021;45.640;11.302;2023-02-28T14:53:59;14.15;;;11.13;;
40314;SDS011;26021;45.640;11.302;2023-02-28T14:56:36;16.65;;;11.93;;
40314;SDS011;26021;45.640;11.302;2023-02-28T14:59:03;15.27;;;11.60;;
40314;SDS011;26021;45.640;11.302;2023-02-28T15:01:29;17.05;;;11.50;;
40314;SDS011;26021;45.640;11.302;2023-02-28T15:04:04;12.40;;;10.55;;
40314;SDS011;26021;45.640;11.302;2023-02-28T15:06:31;17.40;;;11.57;;
40314;SDS011;26021;45.640;11.302;2023-02-28T15:09:13;14.85;;;11.35;;
40314;SDS011;26021;45.640;11.302;2023-02-28T15:11:40;13.73;;;11.15;;
40314;SDS011;26021;45.640;11.302;2023-02-28T15:14:06;15.02;;;11.63;;
40314;SDS011;26021;45.640;11.302;2023-02-28T15:16:34;15.00;;;11.73;;
40314;SDS011;26021;45.640;11.302;2023-02-28T15:19:14;14.52;;;11.57;;
40314;SDS011;26021;45.640;11.302;2023-02-28T15:21:48;16.27;;;11.82;;
40314;SDS011;26021;45.640;11.302;2023-02-28T15:26:56;15.85;;;11.68;;
40314;SDS011;26021;45.640;11.302;2023-02-28T15:29:26;19.85;;;12.02;;
40314;SDS011;26021;45.640;11.302;2023-02-28T15:32:01;13.75;;;11.23;;
40314;SDS011;26021;45.640;11.302;2023-02-28T15:39:55;19.88;;;12.48;;
40314;SDS011;26021;45.640;11.302;2023-02-28T15:42:27;15.93;;;12.10;;
40314;SDS011;26021;45.640;11.302;2023-02-28T15:44:54;15.80;;;11.88;;
40314;SDS011;26021;45.640;11.302;2023-02-28T15:47:20;17.67;;;12.20;;
40314;SDS011;26021;45.640;11.302;2023-02-28T15:50:10;19.02;;;13.35;;
40314;SDS011;26021;45.640;11.302;2023-02-28T15:52:39;21.58;;;14.30;;
40314;SDS011;26021;45.640;11.302;2023-02-28T15:55:28;17.92;;;12.38;;
40314;SDS011;26021;45.640;11.302;2023-02-28T15:57:54;14.90;;;10.68;;
40314;SDS011;26021;45.640;11.302;2023-02-28T16:00:24;15.30;;;11.13;;
40314;SDS011;26021;45.640;11.302;2023-02-28T16:02:51;14.57;;;11.15;;
40314;SDS011;26021;45.640;11.302;2023-02-28T16:05:27;18.42;;;11.93;;
40314;SDS011;26021;45.640;11.302;2023-02-28T16:08:00;14.27;;;10.80;;
40314;SDS011;26021;45.640;11.302;2023-02-28T16:10:36;16.63;;;10.98;;
40314;SDS011;26021;45.640;11.302;2023-02-28T16:13:01;14.80;;;10.73;;
40314;SDS011;26021;45.640;11.302;2023-02-28T16:15:28;14.50;;;11.18;;
40314;SDS011;26021;45.640;11.302;2023-02-28T16:17:56;14.38;;;11.05;;
40314;SDS011;26021;45.640;11.302;2023-02-28T16:20:23;15.00;;;10.80;;
40314;SDS011;26021;45.640;11.302;2023-02-28T16:22:53;18.20;;;11.98;;
40314;SDS011;26021;45.640;11.302;2023-02-28T16:25:21;17.30;;;12.02;;
40314;SDS011;26021;45.640;11.302;2023-02-28T16:27:59;19.73;;;13.13;;
40314;SDS011;26021;45.640;11.302;2023-02-28T16:30:26;20.92;;;12.13;;
40314;SDS011;26021;45.640;11.302;2023-02-28T16:32:54;20.80;;;11.85;;
40314;SDS011;26021;45.640;11.302;2023-02-28T16:35:20;17.30;;;12.00;;
40314;SDS011;26021;45.640;11.302;2023-02-28T16:37:46;18.63;;;11.60;;
40314;SDS011;26021;45.640;11.302;2023-02-28T16:40:13;15.57;;;11.35;;
40314;SDS011;26021;45.640;11.302;2023-02-28T16:42:40;20.95;;;13.52;;
40314;SDS011;26021;45.640;11.302;2023-02-28T16:45:10;29.95;;;19.08;;
40314;SDS011;26021;45.640;11.302;2023-02-28T16:47:41;19.05;;;13.70;;
40314;SDS011;26021;45.640;11.302;2023-02-28T16:50:19;17.98;;;13.88;;
40314;SDS011;26021;45.640;11.302;2023-02-28T16:52:47;49.05;;;37.53;;
40314;SDS011;26021;45.640;11.302;2023-02-28T16:55:14;90.22;;;69.10;;
40314;SDS011;26021;45.640;11.302;2023-02-28T16:57:40;85.68;;;69.93;;
40314;SDS011;26021;45.640;11.302;2023-02-28T17:00:07;66.55;;;52.38;;
40314;SDS011;26021;45.640;11.302;2023-02-28T17:02:33;67.35;;;41.28;;
40314;SDS011;26021;45.640;11.302;2023-02-28T17:04:59;43.17;;;30.40;;
40314;SDS011;26021;45.640;11.302;2023-02-28T17:07:25;46.28;;;31.98;;
40314;SDS011;26021;45.640;11.302;2023-02-28T17:09:50;32.17;;;24.90;;
40314;SDS011;26021;45.640;11.302;2023-02-28T17:12:16;32.88;;;21.95;;
40314;SDS011;26021;45.640;11.302;2023-02-28T17:14:41;29.42;;;20.02;;
40314;SDS011;26021;45.640;11.302;2023-02-28T17:17:07;39.38;;;25.58;;